Time;durP1;ratioP1;P1;durP2;ratioP2;P2;SDS_P1;SDS_P2;PMS_P1;PMS_P2;Temp;Humidity;BMP_temperature;BMP_pressure;BME280_temperature;BME280_humidity;BME280_pressure;Samples;Min_cycle;Max_cycle;Signal;HPM_P1;HPM_P2
2023/08/27 00:01:42;;;;;;;5.43;1.95;;;12.90;99.90;;;12.28;100.00;100994.72;4152928;28;20482;-75
2023/08/27 00:03:43;;;;;;;4.30;1.15;;;12.90;99.90;;;12.24;100.00;100989.94;4153002;28;20030;-75
2023/08/27 00:05:44;;;;;;;3.13;1.40;;;12.90;99.90;;;12.20;100.00;100990.25;4151733;28;20026;-75
2023/08/27 00:07:45;;;;;;;4.60;1.30;;;12.80;99.90;;;12.18;100.00;100986.91;4167975;28;20039;-75
2023/08/27 00:09:46;;;;;;;5.18;1.67;;;12.80;99.90;;;12.13;100.00;100981.28;4167908;28;20397;-75
2023/08/27 00:11:46;;;;;;;6.13;1.63;;;12.80;99.90;;;12.13;100.00;100983.94;4152832;28;20030;-75
2023/08/27 00:13:47;;;;;;;6.38;1.30;;;12.70;99.90;;;12.13;100.00;100985.75;4152521;28;20508;-75
2023/08/27 00:15:48;;;;;;;7.55;1.60;;;12.70;99.90;;;12.12;100.00;100987.59;4152508;28;20026;-75
2023/08/27 00:17:49;;;;;;;4.30;1.60;;;12.70;99.90;;;12.08;100.00;100980.13;4135183;28;20533;-75
2023/08/27 00:19:50;;;;;;;5.78;2.20;;;12.70;99.90;;;12.03;100.00;100967.41;4151756;28;20040;-75
2023/08/27 00:21:51;;;;;;;7.10;1.90;;;12.70;99.90;;;12.05;100.00;100978.63;4143617;28;20023;-75
2023/08/27 00:23:52;;;;;;;4.60;1.85;;;12.60;99.90;;;12.02;100.00;100978.94;4150256;28;20068;-75
2023/08/27 00:25:53;;;;;;;7.88;1.60;;;12.60;99.90;;;12.02;100.00;100986.03;4151472;28;20418;-75
2023/08/27 00:27:54;;;;;;;3.90;1.38;;;12.60;99.90;;;11.99;100.00;100984.56;4167800;28;20026;-75
2023/08/27 00:29:55;;;;;;;7.65;1.83;;;12.60;99.90;;;11.95;100.00;100983.19;4152761;28;20117;-75
2023/08/27 00:31:55;;;;;;;4.82;1.40;;;12.50;99.90;;;11.94;100.00;100986.84;4151522;28;20030;-75
2023/08/27 00:33:56;;;;;;;8.85;1.50;;;12.50;99.90;;;11.91;100.00;100981.88;4152456;28;20033;-75
2023/08/27 00:35:57;;;;;;;4.35;1.80;;;12.50;99.90;;;11.95;100.00;100987.66;4145064;28;20485;-75
2023/08/27 00:37:58;;;;;;;6.43;2.30;;;12.50;99.90;;;11.90;100.00;100985.50;4151339;28;20088;-75
2023/08/27 00:39:59;;;;;;;6.18;1.75;;;12.50;99.90;;;11.87;100.00;100975.25;4152622;28;20030;-75
2023/08/27 00:42:00;;;;;;;4.60;1.60;;;12.50;99.90;;;11.90;100.00;100984.66;4151327;28;20033;-75
2023/08/27 00:44:01;;;;;;;3.05;1.60;;;12.50;99.90;;;11.88;100.00;100986.66;4152471;28;20030;-75
2023/08/27 00:46:02;;;;;;;5.53;1.73;;;12.50;99.90;;;11.85;100.00;100977.22;4151429;28;20464;-75
2023/08/27 00:48:04;;;;;;;8.82;2.25;;;12.50;99.90;;;11.87;100.00;100979.69;4167677;28;20043;-75
2023/08/27 00:50:08;;;;;;;5.13;1.90;;;12.40;99.90;;;11.82;100.00;100974.91;4167742;28;20457;-75
2023/08/27 00:52:10;;;;;;;6.57;1.77;;;12.40;99.90;;;11.82;100.00;100969.63;4167314;28;20019;-75
2023/08/27 00:54:12;;;;;;;5.25;2.30;;;12.40;99.90;;;11.73;100.00;100973.19;4151193;28;20045;-75
2023/08/27 00:56:13;;;;;;;6.18;2.13;;;12.40;99.90;;;11.75;100.00;100971.22;4150744;28;20382;-75
2023/08/27 00:58:14;;;;;;;3.05;1.63;;;12.40;99.90;;;11.77;100.00;100973.72;4138699;28;20093;-75
2023/08/27 01:00:17;;;;;;;5.90;2.42;;;12.40;99.90;;;11.74;100.00;100980.13;4143157;28;20030;-75
2023/08/27 01:02:18;;;;;;;7.60;2.00;;;12.40;99.90;;;11.73;100.00;100985.59;4151144;28;20044;-75
2023/08/27 01:04:19;;;;;;;7.60;2.05;;;12.40;99.90;;;11.73;100.00;100980.31;4152127;28;20034;-75
2023/08/27 01:06:20;;;;;;;5.80;1.73;;;12.30;99.90;;;11.71;100.00;100980.44;4151003;28;20034;-75
2023/08/27 01:08:33;;;;;;;4.82;1.75;;;12.30;99.90;;;11.73;100.00;100986.41;4151006;28;20026;-75
2023/08/27 01:10:53;;;;;;;5.75;1.77;;;12.30;99.90;;;11.71;100.00;100980.44;4151155;28;20060;-75
2023/08/27 01:13:03;;;;;;;8.80;2.67;;;12.30;99.90;;;11.68;100.00;100989.47;4152259;28;20104;-75
2023/08/27 01:15:06;;;;;;;5.70;2.85;;;12.30;99.90;;;11.67;100.00;100989.66;4151141;28;20076;-75
2023/08/27 01:17:10;;;;;;;4.05;1.50;;;12.30;99.90;;;11.62;100.00;100984.00;4151118;28;20485;-75
2023/08/27 01:19:15;;;;;;;6.63;2.53;;;12.30;99.90;;;11.63;100.00;100991.78;4150964;28;20030;-75
2023/08/27 01:21:25;;;;;;;7.85;1.67;;;12.30;99.90;;;11.62;100.00;100989.28;4144857;28;20514;-75
2023/08/27 01:23:26;;;;;;;4.63;1.95;;;12.30;99.90;;;11.61;100.00;100992.94;4146886;28;20025;-75
2023/08/27 01:25:50;;;;;;;7.28;2.22;;;12.30;99.90;;;11.59;100.00;100984.31;4152234;28;20037;-75
2023/08/27 01:28:20;;;;;;;5.05;2.47;;;12.30;99.90;;;11.62;100.00;100999.84;4151101;28;20452;-75
2023/08/27 01:30:42;;;;;;;9.18;2.20;;;12.30;99.90;;;11.60;100.00;100999.19;4152900;28;20508;-75
2023/08/27 01:32:58;;;;;;;8.38;1.77;;;12.30;99.90;;;11.56;100.00;100987.25;4151097;28;20029;-75
2023/08/27 01:35:01;;;;;;;6.18;2.67;;;12.30;99.90;;;11.55;100.00;100996.19;4149693;28;20037;-75
2023/08/27 01:37:03;;;;;;;4.78;1.98;;;12.30;99.90;;;11.53;100.00;100990.22;4137563;28;20042;-75
2023/08/27 01:39:04;;;;;;;6.13;1.60;;;12.20;99.90;;;11.52;100.00;100992.06;4144174;28;20025;-75
2023/08/27 01:41:07;;;;;;;4.63;1.65;;;12.20;99.90;;;11.55;100.00;100993.53;4155391;28;20144;-75
2023/08/27 01:43:08;;;;;;;5.35;2.15;;;12.30;99.90;;;11.49;100.00;100983.59;4155124;28;20501;-75
2023/08/27 01:45:10;;;;;;;8.45;1.80;;;12.20;99.90;;;11.51;100.00;100985.09;4153893;28;20022;-75
2023/08/27 01:47:12;;;;;;;7.28;2.13;;;12.20;99.90;;;11.49;100.00;100979.16;4155378;28;20022;-75
2023/08/27 01:49:13;;;;;;;5.35;2.10;;;12.20;99.90;;;11.48;100.00;100976.66;4154222;28;20053;-75
2023/08/27 01:51:14;;;;;;;5.85;1.73;;;12.10;99.90;;;11.47;100.00;100985.56;4155117;28;20080;-75
2023/08/27 01:53:15;;;;;;;6.45;1.50;;;12.10;99.90;;;11.41;100.00;100978.28;4154820;28;20026;-75
2023/08/27 01:55:16;;;;;;;6.43;1.60;;;12.10;99.90;;;11.43;100.00;100976.31;4155186;28;20034;-75
2023/08/27 01:57:17;;;;;;;4.57;1.98;;;12.10;99.90;;;11.39;100.00;100977.59;4153962;28;20553;-75
2023/08/27 01:59:18;;;;;;;6.47;1.88;;;12.10;99.90;;;11.39;100.00;100985.50;4154996;28;20061;-75
2023/08/27 02:01:18;;;;;;;4.95;1.63;;;12.10;99.90;;;11.41;100.00;100980.91;4154921;28;20026;-75
2023/08/27 02:03:19;;;;;;;7.25;2.05;;;12.10;99.90;;;11.38;100.00;100984.69;4153767;28;20033;-75
2023/08/27 02:05:20;;;;;;;6.43;2.13;;;12.10;99.90;;;11.36;100.00;100976.09;4153727;28;20060;-75
2023/08/27 02:07:21;;;;;;;6.85;2.00;;;12.00;99.90;;;11.39;100.00;100985.50;4147854;28;20021;-75
2023/08/27 02:09:22;;;;;;;7.72;1.98;;;12.00;99.90;;;11.37;100.00;100988.31;4153600;28;20029;-75
2023/08/27 02:11:22;;;;;;;13.43;2.22;;;12.00;99.90;;;11.34;100.00;100988.63;4153763;28;20393;-75
2023/08/27 02:13:23;;;;;;;6.43;1.67;;;12.00;99.90;;;11.34;100.00;100987.78;4145195;28;20026;-75
2023/08/27 02:15:24;;;;;;;5.85;1.83;;;12.00;99.90;;;11.32;100.00;100992.41;4150504;28;20025;-75
2023/08/27 02:17:25;;;;;;;4.10;1.65;;;11.90;99.90;;;11.32;100.00;100995.06;4154642;28;20034;-75
2023/08/27 02:19:26;;;;;;;9.13;2.70;;;11.90;99.90;;;11.30;100.00;100999.63;4154774;28;20112;-75
2023/08/27 02:21:27;;;;;;;4.25;1.80;;;11.90;99.90;;;11.30;100.00;101002.28;4154817;28;20176;-75
2023/08/27 02:23:28;;;;;;;7.30;2.00;;;11.90;99.90;;;11.27;100.00;100998.16;4154427;28;20037;-75
2023/08/27 02:25:29;;;;;;;6.25;2.30;;;11.90;99.90;;;11.22;100.00;100992.50;4154499;28;20485;-75
2023/08/27 02:27:30;;;;;;;7.03;2.15;;;11.90;99.90;;;11.25;100.00;100989.56;4153487;28;20493;-75
2023/08/27 02:29:30;;;;;;;6.30;2.00;;;11.90;99.90;;;11.23;100.00;100985.41;4153440;28;20021;-75
2023/08/27 02:31:31;;;;;;;7.93;2.30;;;11.90;99.90;;;11.22;100.00;100989.88;4169632;28;20033;-75
2023/08/27 02:33:32;;;;;;;9.65;2.17;;;11.80;99.90;;;11.20;100.00;100985.72;4144898;28;20090;-75
2023/08/27 02:35:33;;;;;;;8.10;1.88;;;11.90;99.90;;;11.19;100.00;100986.69;4150629;28;20036;-75
2023/08/27 02:37:34;;;;;;;8.02;1.92;;;11.80;99.90;;;11.18;100.00;100992.94;4154132;28;20053;-75
2023/08/27 02:39:35;;;;;;;4.07;2.05;;;11.80;99.90;;;11.14;100.00;100986.34;4154192;28;20030;-75
2023/08/27 02:41:36;;;;;;;4.45;1.70;;;11.80;99.90;;;11.11;100.00;100983.00;4154228;28;20507;-75
2023/08/27 02:43:36;;;;;;;4.65;2.00;;;11.80;99.90;;;11.13;100.00;100969.66;4153182;28;20037;-75
2023/08/27 02:45:37;;;;;;;5.07;1.92;;;11.80;99.90;;;11.17;100.00;100978.09;4130656;28;20030;-75
2023/08/27 02:47:39;;;;;;;7.43;1.98;;;11.80;99.90;;;11.15;100.00;100972.97;4147646;28;20057;-75
2023/08/27 02:49:40;;;;;;;4.10;2.38;;;11.80;99.90;;;11.15;100.00;100978.25;4152946;28;20025;-75
2023/08/27 02:51:41;;;;;;;4.97;1.77;;;11.80;99.90;;;11.09;100.00;100968.31;4153967;28;20048;-75
2023/08/27 02:53:42;;;;;;;8.55;2.05;;;11.80;99.90;;;11.16;100.00;100979.09;4154254;28;20413;-75
2023/08/27 02:55:43;;;;;;;7.53;2.60;;;11.80;99.90;;;11.13;100.00;100968.81;4154237;28;20034;-75
2023/08/27 02:57:44;;;;;;;6.80;2.30;;;11.80;99.90;;;11.13;100.00;100964.38;4152876;28;20025;-75
2023/08/27 02:59:44;;;;;;;4.13;2.25;;;11.80;99.90;;;11.13;100.00;100955.63;4152777;28;20544;-75
2023/08/27 03:01:45;;;;;;;7.45;2.20;;;11.80;99.90;;;11.16;100.00;100968.53;4154120;28;20026;-75
2023/08/27 03:03:48;;;;;;;9.05;3.22;;;11.80;99.90;;;11.09;100.00;100958.56;4154007;28;20026;-75
2023/08/27 03:05:49;;;;;;;5.05;2.00;;;11.80;99.90;;;11.07;100.00;100963.19;4152680;28;20033;-75
2023/08/27 03:07:50;;;;;;;4.80;2.08;;;11.80;99.90;;;11.08;100.00;100966.63;4152343;28;20026;-75
2023/08/27 03:09:50;;;;;;;7.20;1.70;;;11.80;99.90;;;11.06;100.00;100969.44;4154083;28;20026;-75
2023/08/27 03:11:51;;;;;;;10.02;2.15;;;11.70;99.90;;;11.08;100.00;100969.28;4153930;28;20022;-75
2023/08/27 03:13:52;;;;;;;4.20;2.10;;;11.70;99.90;;;11.06;100.00;100973.88;4153957;28;20030;-75
2023/08/27 03:15:53;;;;;;;8.02;2.22;;;11.70;99.90;;;10.99;100.00;100967.59;4152408;28;20022;-75
2023/08/27 03:17:54;;;;;;;6.30;2.10;;;11.70;99.90;;;11.03;100.00;100972.38;4152671;28;20026;-75
2023/08/27 03:19:55;;;;;;;12.07;2.10;;;11.70;99.90;;;10.99;100.00;100968.38;4153898;28;20037;-75
2023/08/27 03:21:55;;;;;;;8.13;2.88;;;11.70;99.90;;;10.99;100.00;100965.75;4136036;28;20019;-75
2023/08/27 03:23:57;;;;;;;8.63;2.20;;;11.70;99.90;;;10.99;100.00;100967.59;4153594;28;20026;-75
2023/08/27 03:25:58;;;;;;;5.97;1.67;;;11.70;99.90;;;11.01;100.00;100957.69;4152218;28;20041;-75
2023/08/27 03:27:59;;;;;;;8.15;2.08;;;11.70;99.90;;;11.03;100.00;100963.63;4152347;28;20025;-75
2023/08/27 03:30:00;;;;;;;7.82;2.00;;;11.70;99.90;;;11.02;100.00;100956.72;4153709;28;20022;-75
2023/08/27 03:32:01;;;;;;;7.47;2.22;;;11.70;99.90;;;11.01;100.00;100961.16;4152323;28;20129;-75
2023/08/27 03:34:01;;;;;;;9.52;2.33;;;11.70;99.90;;;11.01;100.00;100958.53;4153620;28;20033;-75
2023/08/27 03:36:03;;;;;;;7.50;2.20;;;11.70;99.90;;;11.03;100.00;100961.81;4150864;28;20034;-75
2023/08/27 03:38:04;;;;;;;7.07;2.40;;;11.70;99.90;;;10.99;100.00;100957.81;4153344;28;20038;-75
2023/08/27 03:40:06;;;;;;;7.03;2.30;;;11.70;99.90;;;10.99;100.00;100955.19;4152184;28;20034;-75
2023/08/27 03:42:06;;;;;;;5.30;1.80;;;11.70;99.90;;;10.96;100.00;100963.41;4168290;28;20087;-75
2023/08/27 03:44:07;;;;;;;6.82;1.83;;;11.70;99.90;;;10.93;100.00;100957.63;4153432;28;20034;-75
2023/08/27 03:46:08;;;;;;;6.57;2.00;;;11.60;99.90;;;10.90;100.00;100958.75;4152102;28;20026;-75
2023/08/27 03:48:10;;;;;;;5.28;2.78;;;11.60;99.90;;;10.88;100.00;100966.00;4152102;28;20441;-75
2023/08/27 03:50:10;;;;;;;5.70;1.90;;;11.60;99.90;;;10.89;100.00;100961.56;4153463;28;20018;-75
2023/08/27 03:52:11;;;;;;;7.28;2.45;;;11.60;99.90;;;10.86;100.00;100967.97;4151410;28;20437;-75
2023/08/27 03:54:12;;;;;;;6.90;2.55;;;11.60;99.90;;;10.88;100.00;100971.28;4152122;28;20039;-75
2023/08/27 03:56:14;;;;;;;6.07;1.88;;;11.60;99.90;;;10.89;100.00;100969.47;4153250;28;20026;-75
2023/08/27 03:58:15;;;;;;;8.70;2.40;;;11.60;99.90;;;10.90;100.00;100979.84;4153285;28;20026;-75
2023/08/27 04:00:17;;;;;;;9.38;2.00;;;11.60;99.90;;;10.91;100.00;100986.81;4151952;28;20033;-75
2023/08/27 04:02:18;;;;;;;7.60;2.60;;;11.60;99.90;;;10.90;100.00;100985.13;4168347;28;20034;-75
2023/08/27 04:04:18;;;;;;;12.52;2.47;;;11.60;99.90;;;10.85;100.00;100991.84;4151825;28;20099;-75
2023/08/27 04:06:19;;;;;;;6.28;2.28;;;11.60;99.90;;;10.87;100.00;100988.06;4153012;28;20079;-75
2023/08/27 04:08:21;;;;;;;5.18;2.65;;;11.60;99.90;;;10.86;100.00;100994.34;4152896;28;20022;-75
2023/08/27 04:10:21;;;;;;;6.47;2.45;;;11.50;99.90;;;10.86;100.00;100985.59;4151672;28;20097;-75
2023/08/27 04:12:22;;;;;;;9.23;2.30;;;11.50;99.90;;;10.84;100.00;100983.09;4152914;28;20101;-75
2023/08/27 04:14:23;;;;;;;7.55;2.63;;;11.50;99.90;;;10.85;100.00;100991.84;4151806;28;20018;-75
2023/08/27 04:16:24;;;;;;;6.38;2.20;;;11.50;99.90;;;10.82;100.00;100990.34;4153038;28;20029;-75
2023/08/27 04:18:26;;;;;;;6.15;2.38;;;11.50;99.90;;;10.80;100.00;100994.97;4151704;28;20037;-75
2023/08/27 04:20:30;;;;;;;7.40;2.80;;;11.50;99.90;;;10.79;100.00;100988.00;4151797;28;20527;-75
2023/08/27 04:22:31;;;;;;;6.80;2.00;;;11.50;99.90;;;10.79;100.00;100997.75;4152515;28;20129;-75
2023/08/27 04:24:32;;;;;;;7.85;2.50;;;11.50;99.90;;;10.74;100.00;100995.56;4151782;28;20277;-75
2023/08/27 04:26:32;;;;;;;5.15;2.22;;;11.50;99.90;;;10.72;100.00;101000.16;4152738;28;20034;-75
2023/08/27 04:28:33;;;;;;;5.90;2.35;;;11.40;99.90;;;10.68;100.00;100987.41;4152786;28;20025;-75
2023/08/27 04:30:34;;;;;;;9.30;2.45;;;11.40;99.90;;;10.67;100.00;100997.13;4152612;28;20030;-75
2023/08/27 04:32:35;;;;;;;7.78;2.58;;;11.40;99.90;;;10.64;100.00;101000.06;4152833;28;20076;-75
2023/08/27 04:34:36;;;;;;;11.50;2.92;;;11.40;99.90;;;10.62;100.00;101004.69;4151551;28;20030;-75
2023/08/27 04:36:37;;;;;;;8.13;2.97;;;11.40;99.90;;;10.60;100.00;101008.44;4147775;28;20478;-75
2023/08/27 04:38:37;;;;;;;5.85;1.92;;;11.30;99.90;;;10.62;100.00;100999.41;4151288;28;20056;-75
2023/08/27 04:40:38;;;;;;;8.13;2.45;;;11.40;99.90;;;10.57;100.00;100999.03;4151370;28;20026;-75
2023/08/27 04:42:39;;;;;;;8.57;2.30;;;11.30;99.90;;;10.62;100.00;101004.69;4151462;28;20026;-75
2023/08/27 04:44:40;;;;;;;9.80;2.15;;;11.30;99.90;;;10.65;100.00;101000.91;4152445;28;20033;-75
2023/08/27 04:46:41;;;;;;;8.10;2.10;;;11.30;99.90;;;10.62;100.00;100990.66;4151149;28;20033;-75
2023/08/27 04:48:42;;;;;;;5.43;2.13;;;11.30;99.90;;;10.69;100.00;101005.75;4151217;28;20541;-75
2023/08/27 04:50:45;;;;;;;6.55;2.22;;;11.40;99.90;;;10.73;100.00;101014.16;4152559;28;20041;-75
2023/08/27 04:52:46;;;;;;;10.07;2.55;;;11.40;99.90;;;10.69;100.00;101000.47;4150884;28;20022;-75
2023/08/27 04:54:47;;;;;;;6.82;2.63;;;11.40;99.90;;;10.72;100.00;101013.34;4151033;28;20032;-75
2023/08/27 04:56:48;;;;;;;8.45;2.38;;;11.40;99.90;;;10.76;100.00;101013.88;4146341;28;20505;-75
2023/08/27 04:58:48;;;;;;;7.63;2.13;;;11.40;99.90;;;10.74;100.00;101015.84;4144317;28;20033;-75
2023/08/27 05:00:53;;;;;;;10.43;2.10;;;11.50;99.90;;;10.76;100.00;101034.97;4152366;28;20089;-75
2023/08/27 05:02:54;;;;;;;6.80;2.10;;;11.50;99.90;;;10.74;100.00;101037.78;4152169;28;20026;-75
2023/08/27 05:04:55;;;;;;;4.35;2.10;;;11.40;99.90;;;10.73;100.00;101030.00;4152493;28;20026;-75
2023/08/27 05:06:56;;;;;;;5.95;2.70;;;11.40;99.90;;;10.73;100.00;101032.63;4152092;28;20403;-75
2023/08/27 05:08:57;;;;;;;10.70;2.50;;;11.40;99.90;;;10.75;100.00;101034.16;4151131;28;20030;-75
2023/08/27 05:10:57;;;;;;;9.43;2.08;;;11.40;99.90;;;10.72;100.00;101029.16;4152161;28;20509;-75
2023/08/27 05:12:58;;;;;;;11.05;2.40;;;11.50;99.90;;;10.76;100.00;101032.34;4151159;28;20026;-75
2023/08/27 05:14:59;;;;;;;5.38;2.30;;;11.40;99.90;;;10.73;100.00;101030.84;4151352;28;20022;-75
2023/08/27 05:17:00;;;;;;;7.10;2.67;;;11.40;99.90;;;10.74;100.00;101029.03;4150310;28;20022;-75
2023/08/27 05:19:01;;;;;;;11.10;2.30;;;11.40;99.90;;;10.70;100.00;101036.41;4133385;28;20023;-75
2023/08/27 05:21:02;;;;;;;8.73;3.08;;;11.40;99.90;;;10.71;100.00;101035.44;4143378;28;20033;-75
2023/08/27 05:23:03;;;;;;;10.43;2.60;;;11.40;99.90;;;10.72;100.00;101034.44;4150823;28;20076;-75
2023/08/27 05:25:04;;;;;;;6.80;3.17;;;11.40;99.90;;;10.73;100.00;101030.84;4152217;28;20018;-75
2023/08/27 05:27:05;;;;;;;7.05;3.05;;;11.40;99.90;;;10.74;100.00;101037.78;4152053;28;20018;-75
2023/08/27 05:29:06;;;;;;;5.70;2.13;;;11.40;99.90;;;10.76;100.00;101033.16;4152207;28;20029;-75
2023/08/27 05:31:07;;;;;;;5.55;2.20;;;11.40;99.90;;;10.70;100.00;101025.03;4152249;28;20050;-75
2023/08/27 05:33:08;;;;;;;5.15;2.22;;;11.40;99.90;;;10.71;100.00;101024.88;4150403;28;20153;-75
2023/08/27 05:35:09;;;;;;;7.82;2.63;;;11.40;99.90;;;10.74;100.00;101036.94;4150684;28;20036;-75
2023/08/27 05:37:10;;;;;;;7.47;2.15;;;11.50;99.90;;;10.76;100.00;101040.25;4145329;28;20053;-75
2023/08/27 05:39:13;;;;;;;8.20;2.13;;;11.40;99.90;;;10.73;100.00;101041.38;4152118;28;20405;-75
2023/08/27 05:41:14;;;;;;;6.78;2.40;;;11.40;99.90;;;10.74;100.00;101048.34;4150987;28;20034;-75
2023/08/27 05:43:15;;;;;;;11.98;2.70;;;11.40;99.90;;;10.75;100.00;101039.41;4149621;28;20129;-75
2023/08/27 05:45:16;;;;;;;6.30;1.92;;;11.40;99.90;;;10.76;100.00;101046.38;4150952;28;20057;-75
2023/08/27 05:47:17;;;;;;;7.70;2.33;;;11.40;99.90;;;10.74;100.00;101045.69;4152245;28;20029;-75
2023/08/27 05:49:18;;;;;;;8.02;2.28;;;11.40;99.90;;;10.77;100.00;101047.19;4134573;28;20034;-75
2023/08/27 05:51:19;;;;;;;7.88;2.15;;;11.50;99.90;;;10.80;100.00;101052.19;4146186;28;20037;-76
2023/08/27 05:53:20;;;;;;;9.05;2.38;;;11.50;99.90;;;10.77;100.00;101042.75;4149178;28;20401;-75
2023/08/27 05:55:20;;;;;;;7.20;2.30;;;11.50;99.90;;;10.81;100.00;101044.09;4150493;28;20029;-75
2023/08/27 05:57:21;;;;;;;7.35;2.45;;;11.50;99.90;;;10.87;100.00;101054.06;4151403;28;20030;-76
2023/08/27 05:59:22;;;;;;;8.02;2.08;;;11.50;99.90;;;10.89;100.00;101052.13;4146690;28;20430;-77
2023/08/27 06:01:23;;;;;;;8.13;2.25;;;11.50;99.90;;;10.88;100.00;101050.44;4151679;28;20386;-76
2023/08/27 06:03:25;;;;;;;5.60;2.08;;;11.60;99.90;;;10.92;100.00;101057.09;4151892;28;20069;-76
2023/08/27 06:05:25;;;;;;;8.68;2.90;;;11.60;99.90;;;10.92;100.00;101067.66;4151855;28;20052;-75
2023/08/27 06:07:26;;;;;;;5.03;1.92;;;11.60;99.90;;;10.95;100.00;101071.78;4150451;28;20026;-76
2023/08/27 06:09:27;;;;;;;5.15;2.28;;;11.60;99.90;;;10.96;100.00;101074.28;4151776;28;20018;-76
2023/08/27 06:11:28;;;;;;;6.63;2.30;;;11.60;99.90;;;10.96;100.00;101078.75;4151892;28;20038;-75
2023/08/27 06:13:29;;;;;;;9.80;2.78;;;11.60;99.90;;;10.97;100.00;101081.22;4134402;28;20429;-75
2023/08/27 06:15:32;;;;;;;9.55;2.78;;;11.70;99.90;;;10.98;100.00;101080.25;4151906;28;20029;-76
2023/08/27 06:17:32;;;;;;;6.47;2.13;;;11.70;99.90;;;11.06;100.00;101087.41;4154776;28;20489;-75
2023/08/27 06:19:33;;;;;;;4.80;1.85;;;11.70;99.90;;;11.07;100.00;101087.28;4154675;28;20049;-75
2023/08/27 06:21:34;;;;;;;9.75;2.20;;;11.70;99.90;;;11.10;100.00;101086.97;4154509;28;20099;-75
2023/08/27 06:23:35;;;;;;;7.35;1.88;;;11.80;99.90;;;11.14;100.00;101076.09;4153517;28;20076;-75
2023/08/27 06:25:36;;;;;;;7.28;3.13;;;11.90;99.90;;;11.20;100.00;101075.50;4169698;28;20018;-75
2023/08/27 06:27:38;;;;;;;7.63;2.40;;;11.90;99.90;;;11.22;100.00;101060.31;4152855;28;20030;-75
2023/08/27 06:29:38;;;;;;;5.53;1.85;;;11.90;99.90;;;11.32;100.00;101064.53;4152128;28;20578;-75
2023/08/27 06:31:39;;;;;;;4.18;2.20;;;12.00;99.90;;;11.36;100.00;101062.41;4154115;28;20026;-75
2023/08/27 06:33:40;;;;;;;12.27;2.40;;;12.00;99.90;;;11.42;100.00;101064.44;4151203;28;20029;-75
2023/08/27 06:35:42;;;;;;;8.35;2.60;;;12.10;99.90;;;11.42;100.00;101045.94;4150962;28;20084;-75
2023/08/27 06:37:43;;;;;;;6.07;2.22;;;12.10;99.90;;;11.53;100.00;101056.25;4136844;28;20046;-83
2023/08/27 06:39:44;;;;;;;5.78;2.03;;;12.20;99.90;;;11.58;100.00;101054.00;4149172;28;20030;-82
2023/08/27 06:41:44;;;;;;;8.90;2.92;;;12.20;99.90;;;11.64;100.00;101074.53;4154242;28;20030;-79
2023/08/27 06:43:46;;;;;;;3.83;2.10;;;12.30;99.90;;;11.70;100.00;101068.66;4154265;28;20107;-79
2023/08/27 06:45:47;;;;;;;4.25;1.70;;;12.40;99.90;;;11.71;100.00;101067.66;4153091;28;20025;-78
2023/08/27 06:47:48;;;;;;;7.22;2.00;;;12.40;99.90;;;11.80;100.00;101073.84;4154305;28;20037;-78
2023/08/27 06:49:51;;;;;;;7.85;2.35;;;12.50;99.90;;;11.86;100.00;101065.25;4145916;28;20089;-76
2023/08/27 06:51:52;;;;;;;8.10;2.00;;;12.50;99.90;;;11.90;100.00;101079.84;4152940;28;20026;-77
2023/08/27 06:53:52;;;;;;;5.97;2.85;;;12.60;99.90;;;12.01;100.00;101088.31;4152978;28;20025;-78
2023/08/27 06:55:53;;;;;;;7.78;2.67;;;12.70;99.90;;;12.07;100.00;101095.63;4154187;28;20037;-76
2023/08/27 06:57:54;;;;;;;4.72;2.20;;;12.70;99.90;;;12.13;100.00;101097.66;4153000;28;20098;-77
2023/08/27 06:59:55;;;;;;;8.55;2.63;;;12.80;99.90;;;12.20;100.00;101098.69;4149566;28;20037;-77
2023/08/27 07:01:56;;;;;;;7.03;2.53;;;12.90;99.90;;;12.24;100.00;101099.22;4154192;28;20494;-77
2023/08/27 07:03:58;;;;;;;4.82;2.25;;;12.90;99.90;;;12.34;100.00;101101.72;4152798;28;20029;-75
2023/08/27 07:05:59;;;;;;;4.57;1.83;;;13.00;99.90;;;12.41;100.00;101097.44;4153797;28;20018;-76
2023/08/27 07:08:00;;;;;;;5.80;1.73;;;13.10;99.90;;;12.47;100.00;101095.00;4151024;28;20037;-77
2023/08/27 07:10:00;;;;;;;8.68;2.85;;;13.20;99.90;;;12.59;100.00;101098.19;4140761;28;20018;-79
2023/08/27 07:12:02;;;;;;;8.32;1.70;;;13.30;99.90;;;12.69;100.00;101098.88;4150021;28;20038;-80
2023/08/27 07:14:03;;;;;;;7.10;1.77;;;13.30;99.90;;;12.74;100.00;101100.06;4153353;28;20034;-75
2023/08/27 07:16:04;;;;;;;4.40;1.73;;;13.50;99.90;;;12.87;100.00;101101.41;4148316;28;20033;-76
2023/08/27 07:18:05;;;;;;;11.18;3.08;;;13.50;99.90;;;12.98;100.00;101115.19;4152180;28;20539;-76
2023/08/27 07:20:07;;;;;;;5.70;1.83;;;13.70;99.90;;;13.04;100.00;101108.41;4151435;28;20025;-76
2023/08/27 07:22:08;;;;;;;5.85;1.83;;;13.70;99.90;;;13.13;100.00;101102.16;4134238;28;20035;-76
2023/08/27 07:24:09;;;;;;;6.28;1.90;;;13.80;99.90;;;13.24;100.00;101110.59;4147968;28;20408;-76
2023/08/27 07:26:11;;;;;;;9.52;1.80;;;13.90;99.90;;;13.31;100.00;101108.13;4157511;28;20030;-75
2023/08/27 07:28:12;;;;;;;9.18;1.90;;;14.00;99.90;;;13.43;100.00;101106.00;4151522;28;20514;-75
2023/08/27 07:30:13;;;;;;;5.55;2.53;;;14.10;99.90;;;13.54;100.00;101097.69;4149944;28;20080;-75
2023/08/27 07:32:13;;;;;;;8.27;1.52;;;14.20;99.90;;;13.66;100.00;101104.31;4153669;28;20025;-75
2023/08/27 07:34:14;;;;;;;5.65;2.40;;;14.30;99.90;;;13.75;100.00;101111.28;4152431;28;20026;-77
2023/08/27 07:36:15;;;;;;;7.93;2.00;;;14.40;99.90;;;13.81;100.00;101103.47;4150370;28;20068;-78
2023/08/27 07:38:16;;;;;;;8.50;2.42;;;14.50;99.90;;;13.94;100.00;101108.28;4153312;28;20420;-79
2023/08/27 07:40:17;;;;;;;4.20;1.65;;;14.60;99.90;;;14.04;100.00;101114.19;4144980;28;20029;-78
2023/08/27 07:42:21;;;;;;;3.45;1.55;;;14.70;99.90;;;14.14;100.00;101108.72;4152393;28;20402;-78
2023/08/27 07:44:22;;;;;;;8.15;1.65;;;14.80;99.90;;;14.28;100.00;101113.31;4153430;28;20041;-74
2023/08/27 07:46:23;;;;;;;12.15;2.33;;;14.90;99.90;;;14.36;100.00;101108.84;4152392;28;20406;-75
2023/08/27 07:48:24;;;;;;;8.25;1.95;;;15.00;99.90;;;14.47;100.00;101112.94;4152092;28;20026;-75
2023/08/27 07:50:26;;;;;;;6.78;2.33;;;15.10;99.90;;;14.64;100.00;101114.53;4146892;28;20072;-75
2023/08/27 07:52:27;;;;;;;8.88;2.28;;;15.20;99.90;;;14.70;100.00;101119.13;4151670;28;20096;-75
2023/08/27 07:54:28;;;;;;;6.85;1.92;;;15.30;99.90;;;14.76;100.00;101112.31;4152465;28;20026;-75
2023/08/27 07:56:29;;;;;;;7.93;1.80;;;15.40;99.90;;;14.82;100.00;101127.53;4152567;28;20032;-76
2023/08/27 07:58:30;;;;;;;6.43;1.75;;;15.40;99.90;;;14.82;100.00;101124.88;4151834;28;20034;-75
2023/08/27 08:00:31;;;;;;;7.43;2.00;;;15.50;99.90;;;14.95;100.00;101128.66;4147168;28;20643;-75
2023/08/27 08:02:32;;;;;;;5.40;2.03;;;15.60;99.90;;;15.06;100.00;101132.72;4151206;28;20026;-76
2023/08/27 08:04:32;;;;;;;5.35;1.52;;;15.70;99.90;;;15.09;100.00;101129.72;4151445;28;20037;-75
2023/08/27 08:06:33;;;;;;;7.47;2.10;;;15.70;99.90;;;15.22;100.00;101131.78;4151422;28;20513;-75
2023/08/27 08:08:35;;;;;;;7.30;1.30;;;15.80;99.90;;;15.27;100.00;101130.25;4152025;28;20445;-75
2023/08/27 08:10:36;;;;;;;7.50;1.52;;;15.90;99.90;;;15.35;100.00;101129.38;4141569;28;20033;-76
2023/08/27 08:12:36;;;;;;;8.27;2.03;;;16.00;99.90;;;15.41;100.00;101126.81;4138156;28;20067;-76
2023/08/27 08:14:37;;;;;;;4.72;1.27;;;16.10;99.90;;;15.51;100.00;101126.63;4140456;28;20512;-75
2023/08/27 08:16:38;;;;;;;6.38;1.60;;;16.10;99.90;;;15.60;100.00;101130.03;4151906;28;20096;-76
2023/08/27 08:18:39;;;;;;;4.57;1.52;;;16.20;99.90;;;15.56;100.00;101118.91;4153575;28;20034;-76
2023/08/27 08:20:40;;;;;;;4.50;1.30;;;16.30;99.90;;;15.64;100.00;101120.69;4151646;28;20033;-75